In Rescue
 
Open Full Screen Window  High Contrast Mode
Wind Gusting 00 knots
06
May 20, 2019 1:45 PM CDT
Weather Information
Wind Direction
  360 °
Wind Speed
  06 kt (7 mph)
Wind Gust
  00 kt (0 mph)
Altimeter
30.14 in
Visibility
10 SM
Temperature
15° C
59° F
Dewpoint
01° C
34° F
Humidity
39%
1hr Rain Fall
00.00 in.
24hr Rain Fall
00.06 in.
Sky Condition
Clear
VFR

METAR KSGS 201845Z AUTO 36006KT 10SM CLR 15/01 A3014 RMK AO2 T01480006

FAA Disclaimer: The data displayed is for advisory purposes only and is not to be used for flight planning or operations.